sensor_id;sensor_type;location;lat;lon;timestamp;pressure;altitude;pressure_sealevel;temperature;humidity
59170;BME280;52474;52.236;5.114;2023-04-30T00:00:23;102436.13;;;6.02;100.00
59170;BME280;52474;52.236;5.114;2023-04-30T00:02:49;102440.47;;;6.03;100.00
59170;BME280;52474;52.236;5.114;2023-04-30T00:05:15;102436.19;;;6.00;100.00
59170;BME280;52474;52.236;5.114;2023-04-30T00:07:41;102433.25;;;5.86;100.00
59170;BME280;52474;52.236;5.114;2023-04-30T00:10:11;102434.22;;;5.84;100.00
59170;BME280;52474;52.236;5.114;2023-04-30T00:12:38;102428.06;;;5.83;100.00
59170;BME280;52474;52.236;5.114;2023-04-30T00:15:04;102433.94;;;5.68;100.00
59170;BME280;52474;52.236;5.114;2023-04-30T00:17:32;102418.44;;;5.62;100.00
59170;BME280;52474;52.236;5.114;2023-04-30T00:20:02;102417.69;;;5.58;100.00
59170;BME280;52474;52.236;5.114;2023-04-30T00:22:28;102428.78;;;5.66;100.00
59170;BME280;52474;52.236;5.114;2023-04-30T00:24:55;102439.28;;;5.66;100.00
59170;BME280;52474;52.236;5.114;2023-04-30T00:27:21;102420.25;;;5.59;100.00
59170;BME280;52474;52.236;5.114;2023-04-30T00:29:48;102440.13;;;5.67;100.00
59170;BME280;52474;52.236;5.114;2023-04-30T00:32:14;102434.88;;;5.67;100.00
59170;BME280;52474;52.236;5.114;2023-04-30T00:34:41;102437.00;;;5.57;100.00
59170;BME280;52474;52.236;5.114;2023-04-30T00:37:07;102435.19;;;5.59;100.00
59170;BME280;52474;52.236;5.114;2023-04-30T00:39:33;102436.94;;;5.58;100.00
59170;BME280;52474;52.236;5.114;2023-04-30T00:42:00;102445.78;;;5.56;100.00
59170;BME280;52474;52.236;5.114;2023-04-30T00:44:27;102440.78;;;5.50;100.00
59170;BME280;52474;52.236;5.114;2023-04-30T00:46:53;102462.72;;;5.49;100.00
59170;BME280;52474;52.236;5.114;2023-04-30T00:49:19;102456.00;;;5.42;100.00
59170;BME280;52474;52.236;5.114;2023-04-30T00:51:47;102461.34;;;5.62;100.00
59170;BME280;52474;52.236;5.114;2023-04-30T00:54:13;102458.66;;;5.64;100.00
59170;BME280;52474;52.236;5.114;2023-04-30T00:56:40;102460.66;;;5.57;100.00
59170;BME280;52474;52.236;5.114;2023-04-30T00:59:06;102451.47;;;5.45;100.00
59170;BME280;52474;52.236;5.114;2023-04-30T01:01:33;102456.22;;;5.35;100.00
59170;BME280;52474;52.236;5.114;2023-04-30T01:03:59;102457.34;;;5.28;100.00
59170;BME280;52474;52.236;5.114;2023-04-30T01:06:26;102452.41;;;5.21;100.00
59170;BME280;52474;52.236;5.114;2023-04-30T01:08:52;102454.72;;;5.28;100.00
59170;BME280;52474;52.236;5.114;2023-04-30T01:17:10;102454.00;;;5.25;100.00
59170;BME280;52474;52.236;5.114;2023-04-30T01:19:43;102428.25;;;5.11;100.00
59170;BME280;52474;52.236;5.114;2023-04-30T01:25:13;102453.66;;;5.10;100.00
59170;BME280;52474;52.236;5.114;2023-04-30T01:30:17;102464.28;;;5.07;100.00
59170;BME280;52474;52.236;5.114;2023-04-30T01:32:44;102461.81;;;5.03;100.00
59170;BME280;52474;52.236;5.114;2023-04-30T01:35:10;102461.00;;;5.01;100.00
59170;BME280;52474;52.236;5.114;2023-04-30T01:45:37;102468.41;;;4.89;100.00
59170;BME280;52474;52.236;5.114;2023-04-30T01:48:30;102467.50;;;4.90;100.00
59170;BME280;52474;52.236;5.114;2023-04-30T01:51:10;102469.00;;;4.98;100.00
59170;BME280;52474;52.236;5.114;2023-04-30T01:53:41;102467.88;;;5.05;100.00
59170;BME280;52474;52.236;5.114;2023-04-30T01:56:11;102474.66;;;5.10;100.00
59170;BME280;52474;52.236;5.114;2023-04-30T01:58:42;102468.56;;;5.10;100.00
59170;BME280;52474;52.236;5.114;2023-04-30T02:01:27;102468.75;;;5.04;100.00
59170;BME280;52474;52.236;5.114;2023-04-30T02:03:55;102459.34;;;4.98;100.00
59170;BME280;52474;52.236;5.114;2023-04-30T02:06:22;102474.44;;;4.91;100.00
59170;BME280;52474;52.236;5.114;2023-04-30T02:08:56;102472.78;;;4.89;100.00
59170;BME280;52474;52.236;5.114;2023-04-30T02:11:28;102457.47;;;4.77;100.00
59170;BME280;52474;52.236;5.114;2023-04-30T02:13:54;102473.34;;;4.73;100.00
59170;BME280;52474;52.236;5.114;2023-04-30T02:16:21;102471.88;;;4.65;100.00
59170;BME280;52474;52.236;5.114;2023-04-30T02:18:47;102471.09;;;4.63;100.00
59170;BME280;52474;52.236;5.114;2023-04-30T02:21:14;102472.94;;;4.59;100.00
59170;BME280;52474;52.236;5.114;2023-04-30T02:23:40;102468.72;;;4.55;100.00
59170;BME280;52474;52.236;5.114;2023-04-30T02:26:08;102470.59;;;4.51;100.00
59170;BME280;52474;52.236;5.114;2023-04-30T02:28:34;102474.91;;;4.52;100.00
59170;BME280;52474;52.236;5.114;2023-04-30T02:31:01;102469.59;;;4.56;100.00
59170;BME280;52474;52.236;5.114;2023-04-30T02:33:27;102463.72;;;4.47;100.00
59170;BME280;52474;52.236;5.114;2023-04-30T02:35:54;102462.88;;;4.47;100.00
59170;BME280;52474;52.236;5.114;2023-04-30T02:38:20;102461.97;;;4.48;100.00
59170;BME280;52474;52.236;5.114;2023-04-30T02:40:46;102460.69;;;4.60;100.00
59170;BME280;52474;52.236;5.114;2023-04-30T02:43:13;102452.66;;;4.64;100.00
59170;BME280;52474;52.236;5.114;2023-04-30T02:45:40;102457.25;;;4.58;100.00
59170;BME280;52474;52.236;5.114;2023-04-30T02:48:06;102458.22;;;4.55;100.00
59170;BME280;52474;52.236;5.114;2023-04-30T02:50:32;102458.59;;;4.44;100.00
59170;BME280;52474;52.236;5.114;2023-04-30T02:52:58;102447.59;;;4.33;100.00
59170;BME280;52474;52.236;5.114;2023-04-30T02:55:25;102457.03;;;4.39;100.00
59170;BME280;52474;52.236;5.114;2023-04-30T02:57:52;102449.97;;;4.41;100.00
59170;BME280;52474;52.236;5.114;2023-04-30T03:00:18;102455.78;;;4.50;100.00
59170;BME280;52474;52.236;5.114;2023-04-30T03:02:44;102451.38;;;4.51;100.00
59170;BME280;52474;52.236;5.114;2023-04-30T03:05:12;102455.59;;;4.55;100.00
59170;BME280;52474;52.236;5.114;2023-04-30T03:07:38;102454.69;;;4.56;100.00
59170;BME280;52474;52.236;5.114;2023-04-30T03:10:04;102466.03;;;4.57;100.00
59170;BME280;52474;52.236;5.114;2023-04-30T03:12:32;102446.94;;;4.53;100.00
59170;BME280;52474;52.236;5.114;2023-04-30T03:14:58;102457.22;;;4.59;100.00
59170;BME280;52474;52.236;5.114;2023-04-30T03:17:25;102446.28;;;4.46;100.00
59170;BME280;52474;52.236;5.114;2023-04-30T03:19:51;102445.16;;;4.54;100.00
59170;BME280;52474;52.236;5.114;2023-04-30T03:22:18;102445.28;;;4.50;100.00
59170;BME280;52474;52.236;5.114;2023-04-30T03:24:45;102446.88;;;4.55;100.00
59170;BME280;52474;52.236;5.114;2023-04-30T03:27:11;102449.59;;;4.51;100.00
59170;BME280;52474;52.236;5.114;2023-04-30T03:29:39;102445.22;;;4.52;100.00
59170;BME280;52474;52.236;5.114;2023-04-30T03:32:05;102446.06;;;4.52;100.00
59170;BME280;52474;52.236;5.114;2023-04-30T03:34:31;102455.13;;;4.44;100.00
59170;BME280;52474;52.236;5.114;2023-04-30T03:37:00;102437.81;;;4.38;100.00
59170;BME280;52474;52.236;5.114;2023-04-30T03:39:27;102443.00;;;4.40;100.00
59170;BME280;52474;52.236;5.114;2023-04-30T03:41:53;102441.22;;;4.40;100.00
59170;BME280;52474;52.236;5.114;2023-04-30T03:44:22;102438.97;;;4.29;100.00
59170;BME280;52474;52.236;5.114;2023-04-30T03:46:48;102435.66;;;4.24;100.00
59170;BME280;52474;52.236;5.114;2023-04-30T03:49:14;102444.44;;;4.23;100.00
59170;BME280;52474;52.236;5.114;2023-04-30T03:51:40;102444.03;;;4.36;100.00
59170;BME280;52474;52.236;5.114;2023-04-30T03:54:07;102437.81;;;4.38;100.00
59170;BME280;52474;52.236;5.114;2023-04-30T03:56:33;102432.66;;;4.35;100.00
59170;BME280;52474;52.236;5.114;2023-04-30T03:59:01;102434.59;;;4.30;100.00
59170;BME280;52474;52.236;5.114;2023-04-30T04:01:29;102436.19;;;4.34;100.00
59170;BME280;52474;52.236;5.114;2023-04-30T04:03:56;102409.06;;;4.08;100.00
59170;BME280;52474;52.236;5.114;2023-04-30T04:06:22;102446.25;;;4.21;100.00
59170;BME280;52474;52.236;5.114;2023-04-30T04:08:49;102436.63;;;4.22;100.00
59170;BME280;52474;52.236;5.114;2023-04-30T04:11:15;102428.91;;;4.17;100.00
59170;BME280;52474;52.236;5.114;2023-04-30T04:13:44;102425.31;;;4.20;100.00
59170;BME280;52474;52.236;5.114;2023-04-30T04:16:12;102414.56;;;4.27;100.00
59170;BME280;52474;52.236;5.114;2023-04-30T04:18:38;102422.16;;;4.35;100.00
59170;BME280;52474;52.236;5.114;2023-04-30T04:21:05;102416.44;;;4.24;100.00
59170;BME280;52474;52.236;5.114;2023-04-30T04:23:33;102423.38;;;4.25;100.00
59170;BME280;52474;52.236;5.114;2023-04-30T04:25:59;102426.72;;;4.30;100.00
59170;BME280;52474;52.236;5.114;2023-04-30T04:28:26;102429.34;;;4.30;100.00
59170;BME280;52474;52.236;5.114;2023-04-30T04:30:52;102422.78;;;4.43;100.00
59170;BME280;52474;52.236;5.114;2023-04-30T04:33:19;102421.66;;;4.50;100.00
59170;BME280;52474;52.236;5.114;2023-04-30T04:35:45;102424.06;;;4.57;100.00
59170;BME280;52474;52.236;5.114;2023-04-30T04:38:12;102437.72;;;4.66;100.00
59170;BME280;52474;52.236;5.114;2023-04-30T04:40:38;102441.00;;;4.73;100.00
59170;BME280;52474;52.236;5.114;2023-04-30T04:43:05;102433.81;;;4.78;100.00
59170;BME280;52474;52.236;5.114;2023-04-30T04:45:32;102442.94;;;4.91;100.00
59170;BME280;52474;52.236;5.114;2023-04-30T04:48:00;102440.13;;;4.98;100.00
59170;BME280;52474;52.236;5.114;2023-04-30T04:50:27;102437.59;;;5.18;100.00
59170;BME280;52474;52.236;5.114;2023-04-30T04:52:53;102434.84;;;5.21;100.00
59170;BME280;52474;52.236;5.114;2023-04-30T04:55:20;102440.34;;;5.38;100.00
59170;BME280;52474;52.236;5.114;2023-04-30T04:57:46;102437.59;;;5.42;100.00
59170;BME280;52474;52.236;5.114;2023-04-30T05:00:12;102437.13;;;5.54;100.00
59170;BME280;52474;52.236;5.114;2023-04-30T05:02:38;102439.38;;;5.63;100.00
59170;BME280;52474;52.236;5.114;2023-04-30T05:05:05;102427.84;;;5.67;100.00
59170;BME280;52474;52.236;5.114;2023-04-30T05:07:33;102434.63;;;5.73;100.00
59170;BME280;52474;52.236;5.114;2023-04-30T05:09:59;102437.06;;;5.77;100.00
59170;BME280;52474;52.236;5.114;2023-04-30T05:12:26;102429.28;;;5.76;100.00
59170;BME280;52474;52.236;5.114;2023-04-30T05:14:54;102433.16;;;5.88;100.00
59170;BME280;52474;52.236;5.114;2023-04-30T05:17:21;102434.09;;;5.87;100.00
59170;BME280;52474;52.236;5.114;2023-04-30T05:19:47;102436.44;;;5.94;100.00
59170;BME280;52474;52.236;5.114;2023-04-30T05:22:15;102445.94;;;5.98;100.00
59170;BME280;52474;52.236;5.114;2023-04-30T05:24:42;102442.00;;;6.09;100.00
59170;BME280;52474;52.236;5.114;2023-04-30T05:27:08;102444.97;;;6.21;100.00
59170;BME280;52474;52.236;5.114;2023-04-30T05:29:35;102453.53;;;6.27;100.00
59170;BME280;52474;52.236;5.114;2023-04-30T05:32:02;102454.38;;;6.27;100.00
59170;BME280;52474;52.236;5.114;2023-04-30T05:34:28;102456.97;;;6.29;100.00
59170;BME280;52474;52.236;5.114;2023-04-30T05:36:54;102460.13;;;6.37;100.00
59170;BME280;52474;52.236;5.114;2023-04-30T05:39:21;102468.75;;;6.40;100.00
59170;BME280;52474;52.236;5.114;2023-04-30T05:41:47;102463.50;;;6.40;100.00
59170;BME280;52474;52.236;5.114;2023-04-30T05:44:13;102465.94;;;6.45;100.00
59170;BME280;52474;52.236;5.114;2023-04-30T05:46:39;102469.75;;;6.58;100.00
59170;BME280;52474;52.236;5.114;2023-04-30T05:49:05;102468.19;;;6.75;100.00
59170;BME280;52474;52.236;5.114;2023-04-30T05:51:31;102481.00;;;6.82;100.00
59170;BME280;52474;52.236;5.114;2023-04-30T05:53:58;102476.13;;;6.94;100.00
59170;BME280;52474;52.236;5.114;2023-04-30T05:56:25;102469.59;;;7.02;100.00
59170;BME280;52474;52.236;5.114;2023-04-30T05:58:52;102473.31;;;7.17;100.00
59170;BME280;52474;52.236;5.114;2023-04-30T06:01:19;102474.56;;;7.29;100.00
59170;BME280;52474;52.236;5.114;2023-04-30T06:03:46;102476.75;;;7.38;100.00
59170;BME280;52474;52.236;5.114;2023-04-30T06:06:13;102473.22;;;7.39;100.00
59170;BME280;52474;52.236;5.114;2023-04-30T06:08:40;102474.69;;;7.45;100.00
59170;BME280;52474;52.236;5.114;2023-04-30T06:11:10;102481.03;;;7.60;100.00
59170;BME280;52474;52.236;5.114;2023-04-30T06:13:38;102482.53;;;7.65;100.00
59170;BME280;52474;52.236;5.114;2023-04-30T06:16:05;102479.19;;;7.62;100.00
59170;BME280;52474;52.236;5.114;2023-04-30T06:18:35;102477.19;;;7.67;100.00
59170;BME280;52474;52.236;5.114;2023-04-30T06:21:03;102480.78;;;7.66;100.00
59170;BME280;52474;52.236;5.114;2023-04-30T06:23:29;102489.94;;;7.76;100.00
59170;BME280;52474;52.236;5.114;2023-04-30T06:25:56;102482.69;;;7.81;100.00
59170;BME280;52474;52.236;5.114;2023-04-30T06:28:22;102488.28;;;7.92;100.00
59170;BME280;52474;52.236;5.114;2023-04-30T06:30:48;102487.41;;;8.11;100.00
59170;BME280;52474;52.236;5.114;2023-04-30T06:33:17;102481.06;;;8.15;100.00
59170;BME280;52474;52.236;5.114;2023-04-30T06:35:44;102486.03;;;8.21;100.00
59170;BME280;52474;52.236;5.114;2023-04-30T06:38:13;102485.56;;;8.30;100.00
59170;BME280;52474;52.236;5.114;2023-04-30T06:40:39;102479.78;;;8.41;100.00
59170;BME280;52474;52.236;5.114;2023-04-30T06:43:07;102481.56;;;8.58;100.00
59170;BME280;52474;52.236;5.114;2023-04-30T06:45:35;102487.78;;;8.74;100.00
59170;BME280;52474;52.236;5.114;2023-04-30T06:48:04;102464.19;;;8.71;100.00
59170;BME280;52474;52.236;5.114;2023-04-30T06:50:36;102487.69;;;8.93;100.00
59170;BME280;52474;52.236;5.114;2023-04-30T06:53:13;102491.78;;;9.16;100.00
59170;BME280;52474;52.236;5.114;2023-04-30T06:55:40;102473.31;;;9.48;100.00
59170;BME280;52474;52.236;5.114;2023-04-30T06:58:07;102472.75;;;13.75;100.00
59170;BME280;52474;52.236;5.114;2023-04-30T07:00:34;102476.69;;;18.26;100.00
59170;BME280;52474;52.236;5.114;2023-04-30T07:02:59;102469.69;;;19.28;100.00
59170;BME280;52474;52.236;5.114;2023-04-30T07:05:29;102485.91;;;21.75;100.00
59170;BME280;52474;52.236;5.114;2023-04-30T07:08:00;102485.78;;;23.07;100.00
59170;BME280;52474;52.236;5.114;2023-04-30T07:10:28;102479.91;;;23.43;100.00
59170;BME280;52474;52.236;5.114;2023-04-30T07:12:56;102480.13;;;22.45;100.00
59170;BME280;52474;52.236;5.114;2023-04-30T07:15:23;102482.03;;;23.48;100.00
59170;BME280;52474;52.236;5.114;2023-04-30T07:17:50;102487.50;;;23.79;100.00
59170;BME280;52474;52.236;5.114;2023-04-30T07:20:18;102476.69;;;25.07;100.00
59170;BME280;52474;52.236;5.114;2023-04-30T07:22:44;102476.75;;;25.59;95.89
59170;BME280;52474;52.236;5.114;2023-04-30T07:25:12;102484.72;;;25.60;100.00
59170;BME280;52474;52.236;5.114;2023-04-30T07:27:39;102480.81;;;25.84;100.00
59170;BME280;52474;52.236;5.114;2023-04-30T07:30:06;102472.03;;;26.25;98.22
59170;BME280;52474;52.236;5.114;2023-04-30T07:32:34;102475.09;;;27.00;91.13
59170;BME280;52474;52.236;5.114;2023-04-30T07:35:01;102484.88;;;26.94;90.97
59170;BME280;52474;52.236;5.114;2023-04-30T07:37:27;102474.63;;;27.31;87.50
59170;BME280;52474;52.236;5.114;2023-04-30T07:39:54;102481.78;;;26.20;82.19
59170;BME280;52474;52.236;5.114;2023-04-30T07:42:20;102473.88;;;27.09;78.52
59170;BME280;52474;52.236;5.114;2023-04-30T07:44:46;102476.41;;;27.66;87.61
59170;BME280;52474;52.236;5.114;2023-04-30T07:47:14;102472.09;;;27.98;77.98
59170;BME280;52474;52.236;5.114;2023-04-30T07:49:40;102466.28;;;28.67;75.24
59170;BME280;52474;52.236;5.114;2023-04-30T07:52:06;102448.03;;;28.68;70.34
59170;BME280;52474;52.236;5.114;2023-04-30T07:54:36;102467.63;;;27.63;69.74
59170;BME280;52474;52.236;5.114;2023-04-30T07:57:05;102461.66;;;28.68;71.51
59170;BME280;52474;52.236;5.114;2023-04-30T07:59:31;102464.56;;;28.66;67.73
59170;BME280;52474;52.236;5.114;2023-04-30T08:01:58;102469.63;;;28.63;64.17
59170;BME280;52474;52.236;5.114;2023-04-30T08:04:25;102464.34;;;27.88;67.01
59170;BME280;52474;52.236;5.114;2023-04-30T08:06:52;102458.88;;;29.46;66.49
59170;BME280;52474;52.236;5.114;2023-04-30T08:09:18;102466.06;;;30.04;62.60
59170;BME280;52474;52.236;5.114;2023-04-30T08:11:45;102458.59;;;29.61;60.35
59170;BME280;52474;52.236;5.114;2023-04-30T08:14:11;102458.66;;;29.86;62.51
59170;BME280;52474;52.236;5.114;2023-04-30T08:16:38;102464.44;;;30.72;54.33
59170;BME280;52474;52.236;5.114;2023-04-30T08:19:05;102456.06;;;30.23;56.51
59170;BME280;52474;52.236;5.114;2023-04-30T08:21:32;102445.00;;;30.80;54.07
59170;BME280;52474;52.236;5.114;2023-04-30T08:23:59;102458.47;;;29.81;59.06
59170;BME280;52474;52.236;5.114;2023-04-30T08:26:25;102459.94;;;30.59;55.55
59170;BME280;52474;52.236;5.114;2023-04-30T08:28:54;102452.97;;;30.63;55.74
59170;BME280;52474;52.236;5.114;2023-04-30T08:31:21;102465.63;;;31.50;52.71
59170;BME280;52474;52.236;5.114;2023-04-30T08:33:47;102462.75;;;32.05;49.56
59170;BME280;52474;52.236;5.114;2023-04-30T08:36:14;102460.19;;;31.13;46.70
59170;BME280;52474;52.236;5.114;2023-04-30T08:38:41;102459.84;;;31.09;49.07
59170;BME280;52474;52.236;5.114;2023-04-30T08:41:10;102451.56;;;30.97;49.59
59170;BME280;52474;52.236;5.114;2023-04-30T08:43:39;102456.00;;;31.29;51.67
59170;BME280;52474;52.236;5.114;2023-04-30T08:46:07;102467.00;;;30.92;48.50
59170;BME280;52474;52.236;5.114;2023-04-30T08:48:35;102458.69;;;32.19;46.26
59170;BME280;52474;52.236;5.114;2023-04-30T08:51:03;102448.91;;;31.70;50.76
59170;BME280;52474;52.236;5.114;2023-04-30T08:53:33;102450.56;;;31.59;45.53
59170;BME280;52474;52.236;5.114;2023-04-30T08:56:04;102455.00;;;32.25;48.07
59170;BME280;52474;52.236;5.114;2023-04-30T08:58:32;102454.97;;;30.24;43.55
59170;BME280;52474;52.236;5.114;2023-04-30T09:01:07;102455.47;;;31.20;46.76
59170;BME280;52474;52.236;5.114;2023-04-30T09:03:36;102462.28;;;31.90;43.26
59170;BME280;52474;52.236;5.114;2023-04-30T09:06:03;102449.03;;;32.28;40.15
59170;BME280;52474;52.236;5.114;2023-04-30T09:08:47;102455.88;;;32.49;42.11
59170;BME280;52474;52.236;5.114;2023-04-30T09:11:26;102436.28;;;32.81;40.54
59170;BME280;52474;52.236;5.114;2023-04-30T09:13:56;102450.69;;;32.88;38.11
59170;BME280;52474;52.236;5.114;2023-04-30T09:16:29;102453.91;;;32.38;40.23
59170;BME280;52474;52.236;5.114;2023-04-30T09:19:03;102454.44;;;31.81;41.55
59170;BME280;52474;52.236;5.114;2023-04-30T09:21:35;102446.75;;;31.60;44.63
59170;BME280;52474;52.236;5.114;2023-04-30T09:24:04;102452.34;;;31.95;41.06
59170;BME280;52474;52.236;5.114;2023-04-30T09:26:36;102433.38;;;32.88;42.38
59170;BME280;52474;52.236;5.114;2023-04-30T09:29:03;102443.06;;;32.08;40.66
59170;BME280;52474;52.236;5.114;2023-04-30T09:31:41;102432.34;;;32.30;41.52
59170;BME280;52474;52.236;5.114;2023-04-30T09:34:14;102435.22;;;32.47;39.70
59170;BME280;52474;52.236;5.114;2023-04-30T09:36:51;102436.88;;;32.71;39.97
59170;BME280;52474;52.236;5.114;2023-04-30T09:39:24;102428.44;;;33.02;39.57
59170;BME280;52474;52.236;5.114;2023-04-30T09:41:52;102415.84;;;32.89;37.38
59170;BME280;52474;52.236;5.114;2023-04-30T09:44:40;102404.69;;;32.43;37.17
59170;BME280;52474;52.236;5.114;2023-04-30T09:47:21;102415.06;;;32.53;39.58
59170;BME280;52474;52.236;5.114;2023-04-30T09:49:54;102415.66;;;32.55;40.40
59170;BME280;52474;52.236;5.114;2023-04-30T12:13:03;102261.31;;;26.86;65.64
59170;BME280;52474;52.236;5.114;2023-04-30T12:15:40;102260.41;;;26.72;62.48
59170;BME280;52474;52.236;5.114;2023-04-30T12:18:11;102273.53;;;27.63;60.89
59170;BME280;52474;52.236;5.114;2023-04-30T12:20:39;102265.13;;;27.18;61.19
59170;BME280;52474;52.236;5.114;2023-04-30T12:23:07;102249.28;;;26.53;62.83
59170;BME280;52474;52.236;5.114;2023-04-30T12:25:40;102265.94;;;25.31;69.94
59170;BME280;52474;52.236;5.114;2023-04-30T12:28:26;102221.25;;;25.48;69.32
59170;BME280;52474;52.236;5.114;2023-04-30T12:30:54;102238.59;;;25.26;62.55
59170;BME280;52474;52.236;5.114;2023-04-30T12:33:30;102219.91;;;25.66;64.19
59170;BME280;52474;52.236;5.114;2023-04-30T12:35:57;102234.97;;;23.49;74.61
59170;BME280;52474;52.236;5.114;2023-04-30T12:38:24;102234.78;;;25.05;72.33
59170;BME280;52474;52.236;5.114;2023-04-30T12:40:59;102245.72;;;26.18;70.58
59170;BME280;52474;52.236;5.114;2023-04-30T12:43:33;102255.00;;;25.96;65.38
59170;BME280;52474;52.236;5.114;2023-04-30T12:46:07;102241.28;;;25.47;68.45
59170;BME280;52474;52.236;5.114;2023-04-30T12:48:42;102233.25;;;24.96;70.22
59170;BME280;52474;52.236;5.114;2023-04-30T12:51:20;102233.31;;;25.46;68.24
59170;BME280;52474;52.236;5.114;2023-04-30T12:53:52;102242.91;;;23.73;78.15
59170;BME280;52474;52.236;5.114;2023-04-30T12:56:37;102198.25;;;24.58;72.40
59170;BME280;52474;52.236;5.114;2023-04-30T12:59:14;102200.28;;;25.14;70.85
59170;BME280;52474;52.236;5.114;2023-04-30T13:01:44;102234.63;;;24.19;77.99
59170;BME280;52474;52.236;5.114;2023-04-30T13:04:13;102229.72;;;23.09;79.84
59170;BME280;52474;52.236;5.114;2023-04-30T13:06:39;102232.75;;;24.20;74.40
59170;BME280;52474;52.236;5.114;2023-04-30T13:09:05;102218.94;;;24.00;80.33
59170;BME280;52474;52.236;5.114;2023-04-30T13:11:31;102227.44;;;22.67;83.70
59170;BME280;52474;52.236;5.114;2023-04-30T13:13:57;102222.44;;;23.10;82.18
59170;BME280;52474;52.236;5.114;2023-04-30T13:16:23;102232.34;;;22.07;86.77
59170;BME280;52474;52.236;5.114;2023-04-30T13:18:49;102207.34;;;21.74;88.02
59170;BME280;52474;52.236;5.114;2023-04-30T13:21:15;102223.69;;;21.32;97.23
59170;BME280;52474;52.236;5.114;2023-04-30T13:23:41;102218.78;;;21.11;100.00
59170;BME280;52474;52.236;5.114;2023-04-30T13:26:06;102194.56;;;20.52;100.00
59170;BME280;52474;52.236;5.114;2023-04-30T13:28:32;102213.41;;;21.35;100.00
59170;BME280;52474;52.236;5.114;2023-04-30T13:30:58;102215.72;;;21.96;97.06
59170;BME280;52474;52.236;5.114;2023-04-30T13:33:24;102208.66;;;21.86;96.52
59170;BME280;52474;52.236;5.114;2023-04-30T13:35:50;102209.59;;;22.58;90.67
59170;BME280;52474;52.236;5.114;2023-04-30T13:38:15;102187.09;;;22.34;85.45
59170;BME280;52474;52.236;5.114;2023-04-30T13:40:41;102195.88;;;22.90;85.24
59170;BME280;52474;52.236;5.114;2023-04-30T13:43:07;102201.22;;;22.76;76.16
59170;BME280;52474;52.236;5.114;2023-04-30T13:45:33;102177.34;;;23.10;85.79
59170;BME280;52474;52.236;5.114;2023-04-30T13:47:58;102185.66;;;22.78;87.56
59170;BME280;52474;52.236;5.114;2023-04-30T13:50:25;102196.03;;;22.35;93.43
59170;BME280;52474;52.236;5.114;2023-04-30T13:52:51;102165.28;;;23.21;84.64
59170;BME280;52474;52.236;5.114;2023-04-30T13:55:17;102163.72;;;22.10;84.28
59170;BME280;52474;52.236;5.114;2023-04-30T13:57:43;102175.59;;;21.93;89.94
59170;BME280;52474;52.236;5.114;2023-04-30T14:00:09;102171.66;;;21.48;94.56
59170;BME280;52474;52.236;5.114;2023-04-30T14:02:35;102158.97;;;22.60;86.66
59170;BME280;52474;52.236;5.114;2023-04-30T14:05:02;102169.34;;;22.71;84.34
59170;BME280;52474;52.236;5.114;2023-04-30T14:07:29;102163.00;;;22.87;82.36
59170;BME280;52474;52.236;5.114;2023-04-30T14:09:55;102172.84;;;22.09;82.77
59170;BME280;52474;52.236;5.114;2023-04-30T14:12:21;102166.63;;;22.08;80.72
59170;BME280;52474;52.236;5.114;2023-04-30T14:14:48;102165.38;;;22.27;80.51
59170;BME280;52474;52.236;5.114;2023-04-30T14:17:15;102161.56;;;23.37;80.38
59170;BME280;52474;52.236;5.114;2023-04-30T14:19:41;102158.47;;;23.93;82.98
59170;BME280;52474;52.236;5.114;2023-04-30T14:22:07;102153.84;;;22.88;83.94
59170;BME280;52474;52.236;5.114;2023-04-30T14:24:32;102139.22;;;21.89;91.43
59170;BME280;52474;52.236;5.114;2023-04-30T14:26:59;102159.72;;;21.42;99.46
59170;BME280;52474;52.236;5.114;2023-04-30T14:29:26;102145.06;;;20.87;100.00
59170;BME280;52474;52.236;5.114;2023-04-30T14:31:52;102139.53;;;20.30;100.00
59170;BME280;52474;52.236;5.114;2023-04-30T14:34:18;102151.06;;;20.14;100.00
59170;BME280;52474;52.236;5.114;2023-04-30T14:36:44;102135.91;;;20.05;100.00
59170;BME280;52474;52.236;5.114;2023-04-30T14:39:09;102140.25;;;20.48;100.00
59170;BME280;52474;52.236;5.114;2023-04-30T14:41:35;102146.53;;;21.31;100.00
59170;BME280;52474;52.236;5.114;2023-04-30T14:44:02;102127.00;;;21.53;100.00
59170;BME280;52474;52.236;5.114;2023-04-30T14:46:29;102137.94;;;22.07;97.67
59170;BME280;52474;52.236;5.114;2023-04-30T14:48:56;102137.88;;;21.84;92.85
59170;BME280;52474;52.236;5.114;2023-04-30T14:51:22;102142.69;;;21.50;89.31
59170;BME280;52474;52.236;5.114;2023-04-30T14:53:47;102126.72;;;20.91;92.93
59170;BME280;52474;52.236;5.114;2023-04-30T14:56:13;102132.59;;;20.94;95.26
59170;BME280;52474;52.236;5.114;2023-04-30T14:58:40;102120.47;;;20.82;100.00
59170;BME280;52474;52.236;5.114;2023-04-30T15:01:09;102123.50;;;21.04;95.50
59170;BME280;52474;52.236;5.114;2023-04-30T15:03:35;102126.00;;;21.38;98.50
59170;BME280;52474;52.236;5.114;2023-04-30T15:06:02;102098.94;;;20.98;98.41
59170;BME280;52474;52.236;5.114;2023-04-30T15:08:28;102117.78;;;20.82;100.00
59170;BME280;52474;52.236;5.114;2023-04-30T15:10:54;102112.22;;;20.59;100.00
59170;BME280;52474;52.236;5.114;2023-04-30T15:13:20;102112.59;;;20.13;98.77
59170;BME280;52474;52.236;5.114;2023-04-30T15:15:50;102108.00;;;20.06;100.00
59170;BME280;52474;52.236;5.114;2023-04-30T15:18:16;102116.75;;;20.08;100.00
59170;BME280;52474;52.236;5.114;2023-04-30T15:20:42;102106.47;;;20.03;100.00
59170;BME280;52474;52.236;5.114;2023-04-30T15:23:07;102099.81;;;19.81;100.00
59170;BME280;52474;52.236;5.114;2023-04-30T15:25:36;102101.22;;;19.59;100.00
59170;BME280;52474;52.236;5.114;2023-04-30T15:28:02;102092.53;;;20.00;100.00
59170;BME280;52474;52.236;5.114;2023-04-30T15:30:28;102089.47;;;19.94;100.00